GMT,Max TemperatureF,Mean TemperatureF,Min TemperatureF,Max Dew PointF,MeanDew PointF,Min DewpointF,Max Humidity, Mean Humidity, Min Humidity, Max Sea Level PressureIn, Mean Sea Level PressureIn, Min Sea Level PressureIn, Max VisibilityMiles, Mean VisibilityMiles, Min VisibilityMiles, Max Wind SpeedMPH, Mean Wind SpeedMPH, Max Gust SpeedMPH,PrecipitationIn, CloudCover, Events, WindDirDegrees
2012-11-1,46,42,37,43,40,36,100,91,81,29.03,28.90,28.80,6,6,4,13,7,,0.00,3,Rain,230
2012-11-2,48,44,37,41,39,37,100,85,71,29.33,29.21,29.03,6,6,6,17,13,,0.00,2,,219
2012-11-3,48,42,37,41,38,36,100,84,66,29.44,29.37,29.30,6,6,3,15,9,,0.00,3,Rain,226
2012-11-4,42,40,37,39,39,36,93,92,87,29.39,29.32,29.27,6,4,2,12,7,,0.00,5,Rain,27
2012-11-5,50,42,33,39,37,34,100,82,62,30.04,29.82,29.62,6,5,3,12,7,,0.00,1,Fog,320
2012-11-6,50,40,30,46,42,30,100,92,87,30.18,30.12,30.04,6,5,2,13,7,,0.00,3,Fog-Rain,246
2012-11-7,51,44,37,45,43,37,100,84,71,30.24,30.19,30.09,6,6,6,17,9,28,0.00,4,,237
2012-11-8,53,50,46,46,44,41,93,79,67,30.09,30.04,29.98,6,6,6,15,10,,0.00,5,,246
2012-11-9,53,50,46,46,44,41,93,83,71,29.98,29.68,29.50,6,6,6,16,10,26,0.00,5,Rain,199
2012-11-10,50,46,41,46,44,39,100,89,76,29.50,29.42,29.39,6,6,4,8,6,,0.00,4,Rain,229
2012-11-11,50,42,35,43,41,36,100,85,76,30.01,29.92,29.80,6,6,5,12,6,,0.00,1,,230
2012-11-12,53,48,44,52,49,43,100,95,87,30.15,30.07,30.04,6,5,2,15,9,,0.00,3,Rain,203
2012-11-13,59,54,48,52,49,46,94,84,72,30.30,30.24,30.15,6,6,6,16,10,,0.00,5,,201
2012-11-14,55,48,42,52,48,43,100,91,82,30.33,30.29,30.27,6,5,2,8,5,,0.00,5,Fog,141
2012-11-15,44,40,39,43,41,39,100,97,87,30.27,30.17,30.06,5,2,0,7,3,,0.00,6,Fog,194
2012-11-16,48,44,41,48,44,39,100,93,87,30.06,29.90,29.71,5,2,0,8,4,,0.00,7,Fog-Rain,161
2012-11-17,50,46,42,50,45,39,100,89,76,29.80,29.74,29.68,6,5,1,10,6,,0.00,5,Rain,272
2012-11-18,48,40,32,39,37,32,100,86,71,29.98,29.95,29.95,6,6,5,7,5,,0.00,1,Fog,202
2012-11-19,53,47,41,52,46,37,100,89,76,29.77,29.71,29.68,6,6,3,21,15,32,0.00,5,Rain,184
2012-11-20,57,54,50,55,53,50,100,95,88,29.77,29.67,29.62,6,5,2,25,14,37,0.00,5,Rain,184
2012-11-21,50,44,39,50,44,39,100,94,87,29.89,29.74,29.59,6,5,2,17,8,,0.00,5,Rain,219
2012-11-22,55,50,46,50,48,43,100,87,77,29.89,29.68,29.53,6,6,6,33,19,52,0.00,4,Rain,196
2012-11-23,51,44,37,45,41,37,100,90,76,29.98,29.87,29.62,6,6,6,13,9,,0.00,1,Fog,208
2012-11-24,46,40,35,46,41,36,100,97,93,29.98,29.85,29.59,6,4,2,16,7,,0.00,5,Fog-Rain,90
2012-11-25,48,46,44,46,42,39,93,84,71,29.65,29.62,29.53,6,6,6,22,16,,0.00,3,Rain,220
2012-11-26,46,44,41,46,44,41,100,95,87,29.53,29.46,29.44,6,5,3,12,6,,0.00,4,Fog-Rain,329
2012-11-27,46,45,44,45,42,39,93,85,76,29.92,29.76,29.53,6,6,4,22,15,34,0.00,5,Rain,5
2012-11-28,44,40,35,37,35,30,87,80,70,30.01,29.99,29.95,6,6,6,16,13,,0.00,4,,336
2012-11-29,42,35,28,34,31,28,100,82,70,30.01,29.91,29.86,6,6,6,12,8,,0.00,1,Fog,309
2012-11-30,41,34,26,37,31,27,100,97,87,29.95,29.88,29.83,6,3,0,6,3,,0.00,3,Fog,222